Time;durP1;ratioP1;P1;durP2;ratioP2;P2;SDS_P1;SDS_P2;PMS_P1;PMS_P2;Temp;Humidity;BMP_temperature;BMP_pressure;BME280_temperature;BME280_humidity;BME280_pressure;Samples;Min_cycle;Max_cycle;Signal;HPM_P1;HPM_P2
2023/03/26 00:01:35;;;;;;;3.80;1.40;;;6.50;99.90;;;;;;4992312;28;20638;-76
2023/03/26 00:04:05;;;;;;;4.30;1.40;;;6.50;99.90;;;;;;4992483;28;20617;-77
2023/03/26 00:06:37;;;;;;;3.13;1.30;;;6.50;99.90;;;;;;4992821;28;20213;-76
2023/03/26 00:09:11;;;;;;;3.00;1.30;;;6.50;99.90;;;;;;4994388;28;20214;-75
2023/03/26 00:11:40;;;;;;;3.33;1.43;;;6.60;99.90;;;;;;5011846;28;20280;-77
2023/03/26 00:14:12;;;;;;;3.63;1.30;;;6.60;99.90;;;;;;5011573;28;20224;-76
2023/03/26 00:16:41;;;;;;;3.57;1.47;;;6.60;99.90;;;;;;5012267;28;20292;-76
2023/03/26 00:19:10;;;;;;;3.07;1.40;;;6.70;99.90;;;;;;5011534;28;20268;-77
2023/03/26 00:21:38;;;;;;;2.80;1.47;;;6.70;99.90;;;;;;5012249;28;20205;-77
2023/03/26 00:24:10;;;;;;;3.83;1.40;;;6.70;99.90;;;;;;5011742;28;20241;-77
2023/03/26 00:26:39;;;;;;;3.83;1.40;;;6.70;99.90;;;;;;5011271;28;20211;-76
2023/03/26 00:29:09;;;;;;;3.23;1.50;;;6.70;99.90;;;;;;5014068;28;20213;-76
2023/03/26 00:31:38;;;;;;;1.70;1.17;;;6.70;99.90;;;;;;5016275;28;20292;-75
2023/03/26 00:34:09;;;;;;;1.70;1.13;;;6.70;99.90;;;;;;5015286;28;20217;-78
2023/03/26 00:36:41;;;;;;;3.60;1.50;;;6.70;99.90;;;;;;5016162;28;20585;-76
2023/03/26 00:39:10;;;;;;;1.97;1.30;;;6.60;99.90;;;;;;5015902;28;20300;-76
2023/03/26 00:41:41;;;;;;;5.03;1.40;;;6.50;99.90;;;;;;5015260;28;20551;-77
2023/03/26 00:44:11;;;;;;;3.40;1.40;;;6.50;99.90;;;;;;5015592;28;20221;-76
2023/03/26 00:46:39;;;;;;;4.20;1.23;;;6.40;99.90;;;;;;5015809;28;20209;-75
2023/03/26 00:49:09;;;;;;;2.80;1.33;;;6.40;99.90;;;;;;5015233;28;20216;-78
2023/03/26 00:51:39;;;;;;;3.47;1.10;;;6.30;99.90;;;;;;5015513;28;20290;-75
2023/03/26 00:54:07;;;;;;;2.57;1.50;;;6.20;99.90;;;;;;5015168;28;20668;-75
2023/03/26 00:56:37;;;;;;;3.70;1.27;;;6.20;99.90;;;;;;5015786;28;20213;-77
2023/03/26 00:59:05;;;;;;;3.23;1.40;;;6.20;99.90;;;;;;5013686;28;20214;-75
2023/03/26 01:01:34;;;;;;;4.20;1.40;;;6.10;99.90;;;;;;4996206;28;20241;-76
2023/03/26 01:04:26;;;;;;;3.23;1.50;;;6.10;99.90;;;;;;4995819;28;20230;-76
2023/03/26 01:06:58;;;;;;;2.97;1.30;;;6.00;99.90;;;;;;4995903;28;20761;-76
2023/03/26 01:09:32;;;;;;;3.30;1.43;;;6.10;99.90;;;;;;5014017;28;20236;-76
2023/03/26 01:12:04;;;;;;;3.73;1.40;;;6.10;99.90;;;;;;5015398;28;20197;-75
2023/03/26 01:14:32;;;;;;;4.80;1.83;;;6.10;99.90;;;;;;5015688;28;20675;-76
2023/03/26 01:17:02;;;;;;;4.03;1.50;;;6.10;99.90;;;;;;5014550;28;20686;-76
2023/03/26 01:19:37;;;;;;;4.37;1.60;;;6.20;99.90;;;;;;4995882;28;20222;-74
2023/03/26 01:22:09;;;;;;;4.73;1.80;;;6.20;99.90;;;;;;4995431;28;20209;-77
2023/03/26 01:24:39;;;;;;;3.37;1.50;;;6.30;99.90;;;;;;4995872;28;20234;-77
2023/03/26 01:27:20;;;;;;;5.23;1.43;;;6.30;99.90;;;;;;4996011;28;20574;-76
2023/03/26 01:29:54;;;;;;;2.87;1.47;;;6.30;99.90;;;;;;4995328;28;20690;-76
2023/03/26 01:32:39;;;;;;;3.63;1.50;;;6.30;99.90;;;;;;4995568;28;20244;-75
2023/03/26 01:35:21;;;;;;;4.07;1.50;;;6.30;99.90;;;;;;4995469;28;20214;-75
2023/03/26 01:38:13;;;;;;;5.27;1.70;;;6.30;99.90;;;;;;4982275;28;20230;-75
2023/03/26 01:40:48;;;;;;;6.13;1.53;;;6.20;99.90;;;;;;5013574;28;20194;-76
2023/03/26 01:43:28;;;;;;;3.70;1.50;;;6.20;99.90;;;;;;5014947;28;20194;-74
2023/03/26 01:45:58;;;;;;;4.23;1.27;;;6.20;99.90;;;;;;5003836;28;20209;-76
2023/03/26 01:48:31;;;;;;;4.63;1.60;;;6.20;99.90;;;;;;5015093;28;20209;-76
2023/03/26 01:50:59;;;;;;;4.43;1.30;;;6.20;99.90;;;;;;5014815;28;20212;-76
2023/03/26 01:53:28;;;;;;;4.40;1.70;;;6.10;99.90;;;;;;5004709;28;20217;-76
2023/03/26 01:56:09;;;;;;;2.70;1.10;;;6.10;99.90;;;;;;4994912;28;20313;-76
2023/03/26 01:58:50;;;;;;;4.10;1.40;;;6.10;99.90;;;;;;4995260;28;20234;-77
2023/03/26 02:01:28;;;;;;;4.00;1.43;;;6.00;99.90;;;;;;4994882;28;20191;-75
2023/03/26 02:04:06;;;;;;;4.70;1.73;;;6.00;99.90;;;;;;5010991;28;20301;-75
2023/03/26 02:06:43;;;;;;;5.73;1.70;;;6.00;99.90;;;;;;5014218;28;20209;-77
2023/03/26 02:09:14;;;;;;;4.87;1.50;;;6.00;99.90;;;;;;5014602;28;20296;-75
2023/03/26 02:11:46;;;;;;;3.77;1.27;;;6.00;99.90;;;;;;5006590;28;20652;-76
2023/03/26 02:14:15;;;;;;;4.47;1.43;;;5.90;99.90;;;;;;4994785;28;20217;-74
2023/03/26 02:16:45;;;;;;;3.47;1.53;;;5.90;99.90;;;;;;4994795;28;20237;-75
2023/03/26 02:19:20;;;;;;;6.43;1.60;;;5.90;99.90;;;;;;4994412;28;20202;-74
2023/03/26 02:21:50;;;;;;;4.07;1.67;;;5.90;99.90;;;;;;4994450;28;20722;-78
2023/03/26 02:24:18;;;;;;;4.47;1.47;;;5.80;99.90;;;;;;4994327;28;20776;-77
2023/03/26 02:26:48;;;;;;;7.00;1.80;;;5.80;99.90;;;;;;4994615;28;20276;-76
2023/03/26 02:29:19;;;;;;;3.97;1.43;;;5.70;99.90;;;;;;4995090;28;20711;-76
2023/03/26 02:31:48;;;;;;;4.87;1.70;;;5.70;99.90;;;;;;5013969;28;20616;-77
2023/03/26 02:34:16;;;;;;;5.73;1.93;;;5.70;99.90;;;;;;5013983;28;20217;-77
2023/03/26 02:36:44;;;;;;;5.83;1.50;;;5.60;99.90;;;;;;5013669;28;20218;-77
2023/03/26 02:39:13;;;;;;;4.80;1.60;;;5.50;99.90;;;;;;5000564;28;20221;-78
2023/03/26 02:41:41;;;;;;;5.40;1.60;;;5.50;99.90;;;;;;4994377;28;20218;-77
2023/03/26 02:44:10;;;;;;;5.30;1.60;;;5.40;99.90;;;;;;4996335;28;20217;-77
2023/03/26 02:46:38;;;;;;;4.40;1.60;;;5.40;99.90;;;;;;5002974;28;20238;-77
2023/03/26 02:49:07;;;;;;;6.70;1.83;;;5.40;99.90;;;;;;4994186;28;20580;-75
2023/03/26 02:51:36;;;;;;;4.33;1.60;;;5.40;99.90;;;;;;4993658;28;20217;-78
2023/03/26 02:54:05;;;;;;;4.07;1.50;;;5.40;99.90;;;;;;4996887;28;20220;-76
2023/03/26 02:56:34;;;;;;;5.93;1.60;;;5.40;99.90;;;;;;5013657;28;20261;-76
2023/03/26 02:59:02;;;;;;;5.50;1.80;;;5.40;99.90;;;;;;5015424;28;20218;-78
2023/03/26 03:01:33;;;;;;;5.03;1.77;;;5.40;99.90;;;;;;5013710;28;20296;-76
2023/03/26 03:04:03;;;;;;;5.00;1.90;;;5.40;99.90;;;;;;5003328;28;20210;-79
2023/03/26 03:06:31;;;;;;;5.73;1.77;;;5.40;99.90;;;;;;4997998;28;20230;-77
2023/03/26 03:09:01;;;;;;;5.00;1.80;;;5.40;99.90;;;;;;4996163;28;20444;-75
2023/03/26 03:11:29;;;;;;;5.83;1.87;;;5.40;99.90;;;;;;4995547;28;20326;-76
2023/03/26 03:13:57;;;;;;;6.23;1.67;;;5.40;99.90;;;;;;5011853;28;20220;-76
2023/03/26 03:16:27;;;;;;;4.63;1.60;;;5.40;99.90;;;;;;5013455;28;20309;-78
2023/03/26 03:18:57;;;;;;;3.70;1.50;;;5.50;99.90;;;;;;5013194;28;20690;-77
2023/03/26 03:21:28;;;;;;;4.93;1.90;;;5.50;99.90;;;;;;5002473;28;20205;-77
2023/03/26 03:23:56;;;;;;;5.47;1.63;;;5.50;99.90;;;;;;4993290;28;20214;-77
2023/03/26 03:26:28;;;;;;;6.80;1.93;;;5.50;99.90;;;;;;4993285;28;20724;-76
2023/03/26 03:28:58;;;;;;;6.30;1.73;;;5.50;99.90;;;;;;4993582;28;20233;-75
2023/03/26 03:31:27;;;;;;;5.63;1.80;;;5.60;99.90;;;;;;5010997;28;20213;-77
2023/03/26 03:33:56;;;;;;;7.40;1.80;;;5.60;99.90;;;;;;4997290;28;20301;-76
2023/03/26 03:36:26;;;;;;;6.60;1.43;;;5.60;99.90;;;;;;4993360;28;20224;-76
2023/03/26 03:38:54;;;;;;;5.60;1.60;;;5.60;99.90;;;;;;4993512;28;20273;-74
2023/03/26 03:41:23;;;;;;;5.03;1.67;;;5.60;99.90;;;;;;4993662;28;20225;-78
2023/03/26 03:43:51;;;;;;;4.53;1.57;;;5.60;99.90;;;;;;5012801;28;20217;-77
2023/03/26 03:46:19;;;;;;;5.87;1.77;;;5.70;99.90;;;;;;5012622;28;20731;-78
2023/03/26 03:48:48;;;;;;;5.97;1.70;;;5.70;99.90;;;;;;5013056;28;20297;-75
2023/03/26 03:51:18;;;;;;;7.50;2.00;;;5.60;99.90;;;;;;5009929;28;20213;-78
2023/03/26 03:53:48;;;;;;;8.67;2.00;;;5.60;99.90;;;;;;5015141;28;20248;-76
2023/03/26 03:56:18;;;;;;;5.67;1.70;;;5.60;99.90;;;;;;5015562;28;20213;-76
2023/03/26 03:58:46;;;;;;;7.30;1.70;;;5.60;99.90;;;;;;5014115;28;20215;-76
2023/03/26 04:01:15;;;;;;;7.27;2.10;;;5.50;99.90;;;;;;5013154;28;20820;-76
2023/03/26 04:03:45;;;;;;;7.47;2.00;;;5.50;99.90;;;;;;5012942;28;20348;-77
2023/03/26 04:06:17;;;;;;;5.47;1.77;;;5.50;99.90;;;;;;5015074;28;20226;-75
2023/03/26 04:08:47;;;;;;;6.50;1.60;;;5.50;99.90;;;;;;5013536;28;20202;-78
2023/03/26 04:11:15;;;;;;;7.07;2.20;;;5.50;99.90;;;;;;5013151;28;20233;-76
2023/03/26 04:13:44;;;;;;;4.90;1.53;;;5.40;99.90;;;;;;5014065;28;20209;-77
2023/03/26 04:16:12;;;;;;;6.60;1.80;;;5.40;99.90;;;;;;5014778;28;20219;-77
2023/03/26 04:18:40;;;;;;;6.30;1.77;;;5.40;99.90;;;;;;4998904;28;20261;-77
2023/03/26 04:21:08;;;;;;;5.97;1.90;;;5.40;99.90;;;;;;4993606;28;20207;-76
2023/03/26 04:23:36;;;;;;;7.33;1.83;;;5.40;99.90;;;;;;4993779;28;20308;-75
2023/03/26 04:26:09;;;;;;;4.90;1.80;;;5.50;99.90;;;;;;4993389;28;20324;-78
2023/03/26 04:28:45;;;;;;;6.30;1.83;;;5.40;99.90;;;;;;4993204;28;20274;-77
2023/03/26 04:31:17;;;;;;;7.33;1.60;;;5.50;99.90;;;;;;4993201;28;20209;-77
2023/03/26 04:33:47;;;;;;;5.73;1.87;;;5.50;99.90;;;;;;4992308;28;20206;-76
2023/03/26 04:36:16;;;;;;;7.03;1.77;;;5.50;99.90;;;;;;4993659;28;20253;-77
2023/03/26 04:38:47;;;;;;;9.03;2.00;;;5.50;99.90;;;;;;5012151;28;20304;-75
2023/03/26 04:41:17;;;;;;;4.73;1.73;;;5.50;99.90;;;;;;5011766;28;20292;-75
2023/03/26 04:43:49;;;;;;;3.83;1.60;;;5.50;99.90;;;;;;5011620;28;20202;-77
2023/03/26 04:46:20;;;;;;;4.03;1.60;;;5.50;99.90;;;;;;5006154;28;20218;-78
2023/03/26 04:48:48;;;;;;;9.10;2.00;;;5.50;99.90;;;;;;4992564;28;20194;-77
2023/03/26 04:51:18;;;;;;;5.97;2.00;;;5.60;99.90;;;;;;4992474;28;20237;-76
2023/03/26 04:53:51;;;;;;;5.67;1.70;;;5.60;99.90;;;;;;5000780;28;20685;-77
2023/03/26 04:56:32;;;;;;;4.30;1.63;;;5.60;99.90;;;;;;5008344;28;20602;-77
2023/03/26 04:59:02;;;;;;;5.20;2.10;;;5.60;99.90;;;;;;4993938;28;20206;-76
2023/03/26 05:01:30;;;;;;;9.83;2.17;;;5.70;99.90;;;;;;4993860;28;20613;-76
2023/03/26 05:03:59;;;;;;;6.20;2.00;;;5.60;99.90;;;;;;4993701;28;20300;-78
2023/03/26 05:06:29;;;;;;;6.03;1.83;;;5.60;99.90;;;;;;4992527;28;20230;-76
2023/03/26 05:08:57;;;;;;;7.80;1.97;;;5.60;99.90;;;;;;4992465;28;20212;-78
2023/03/26 05:11:26;;;;;;;6.27;2.00;;;5.60;99.90;;;;;;4992337;28;20214;-76
2023/03/26 05:13:56;;;;;;;6.20;1.90;;;5.50;99.90;;;;;;4992094;28;20224;-76
2023/03/26 05:16:24;;;;;;;6.43;2.13;;;5.50;99.90;;;;;;4995640;28;20210;-78
2023/03/26 05:18:53;;;;;;;7.13;1.97;;;5.50;99.90;;;;;;4996021;28;20214;-76
2023/03/26 05:21:21;;;;;;;6.53;2.13;;;5.50;99.90;;;;;;4995409;28;20297;-76
2023/03/26 05:23:49;;;;;;;5.23;1.93;;;5.50;99.90;;;;;;4995713;28;20210;-78
2023/03/26 05:26:18;;;;;;;7.87;2.10;;;5.50;99.90;;;;;;4995724;28;20276;-76
2023/03/26 05:28:47;;;;;;;4.43;1.80;;;5.50;99.90;;;;;;4995621;28;20273;-76
2023/03/26 05:31:19;;;;;;;5.47;1.90;;;5.60;99.90;;;;;;5002764;28;20271;-77
2023/03/26 05:33:48;;;;;;;6.90;2.10;;;5.60;99.90;;;;;;5015086;28;20194;-77
2023/03/26 05:36:17;;;;;;;7.57;2.17;;;5.60;99.90;;;;;;5014158;28;20221;-76
2023/03/26 05:38:48;;;;;;;7.33;2.10;;;5.70;99.90;;;;;;5015034;28;20245;-76
2023/03/26 05:41:17;;;;;;;5.23;2.00;;;5.70;99.90;;;;;;5012087;28;20201;-75
2023/03/26 05:43:46;;;;;;;7.10;2.30;;;5.80;99.90;;;;;;5010683;28;20237;-76
2023/03/26 05:46:16;;;;;;;6.37;2.00;;;5.80;99.90;;;;;;5013824;28;20422;-76
2023/03/26 05:48:45;;;;;;;6.57;2.00;;;5.80;99.90;;;;;;5014209;28;20208;-75
2023/03/26 05:51:14;;;;;;;6.70;1.80;;;5.90;99.90;;;;;;5008163;28;20558;-78
2023/03/26 05:54:07;;;;;;;4.97;1.80;;;5.90;99.90;;;;;;5013969;28;20285;-77
2023/03/26 05:56:36;;;;;;;7.03;2.07;;;5.90;99.90;;;;;;5013530;28;20202;-76
2023/03/26 05:59:05;;;;;;;7.20;2.00;;;5.90;99.90;;;;;;5012484;28;20201;-75
2023/03/26 06:01:35;;;;;;;6.13;1.90;;;6.00;99.90;;;;;;5013593;28;20206;-78
2023/03/26 06:04:03;;;;;;;4.03;1.50;;;6.10;99.90;;;;;;5013155;28;20710;-77
2023/03/26 06:06:31;;;;;;;6.80;1.90;;;6.20;99.90;;;;;;5009476;28;20696;-77
2023/03/26 06:09:00;;;;;;;6.67;2.00;;;6.20;99.90;;;;;;4999541;28;20252;-78
2023/03/26 06:11:31;;;;;;;6.23;2.30;;;6.30;99.90;;;;;;5020122;28;20665;-75
2023/03/26 06:14:00;;;;;;;6.47;1.90;;;6.30;99.90;;;;;;5017097;28;20586;-78
2023/03/26 06:16:28;;;;;;;8.07;2.00;;;7.00;99.90;;;;;;4996630;28;20316;-76
2023/03/26 06:18:58;;;;;;;9.03;1.90;;;7.00;99.90;;;;;;4996973;28;20218;-78
2023/03/26 06:21:26;;;;;;;8.90;1.87;;;6.70;99.90;;;;;;4996872;28;20280;-76
2023/03/26 06:23:54;;;;;;;7.27;1.83;;;6.70;99.90;;;;;;5012601;28;20316;-77
2023/03/26 06:26:23;;;;;;;7.73;1.90;;;6.60;99.90;;;;;;5017224;28;20225;-76
2023/03/26 06:28:51;;;;;;;7.00;1.90;;;6.60;99.90;;;;;;5018985;28;20636;-76
2023/03/26 06:31:19;;;;;;;7.40;2.10;;;6.50;99.90;;;;;;5017700;28;20210;-77
2023/03/26 06:33:47;;;;;;;9.00;2.40;;;6.50;99.90;;;;;;5013476;28;20305;-76
2023/03/26 06:36:17;;;;;;;6.60;2.60;;;6.50;99.90;;;;;;5014581;28;20216;-78
2023/03/26 06:38:45;;;;;;;8.00;2.70;;;6.50;99.90;;;;;;5013716;28;20292;-76
2023/03/26 06:41:13;;;;;;;6.37;2.90;;;6.50;99.90;;;;;;5014168;28;20216;-75
2023/03/26 06:43:41;;;;;;;4.77;2.13;;;6.60;99.90;;;;;;4995868;28;20226;-76
2023/03/26 06:46:11;;;;;;;6.43;2.20;;;6.60;99.90;;;;;;4994670;28;20216;-76
2023/03/26 06:48:40;;;;;;;4.90;2.00;;;6.70;99.90;;;;;;4994051;28;20214;-76
2023/03/26 06:51:09;;;;;;;5.93;2.03;;;6.80;99.90;;;;;;4994103;28;20217;-76
2023/03/26 06:53:38;;;;;;;8.77;2.10;;;6.80;99.90;;;;;;4994081;28;20288;-76
2023/03/26 06:56:08;;;;;;;7.40;2.27;;;6.80;99.90;;;;;;4994017;28;20225;-76
2023/03/26 06:58:36;;;;;;;6.43;2.10;;;6.90;99.90;;;;;;4993708;28;20297;-77
2023/03/26 07:01:04;;;;;;;6.93;2.17;;;7.00;99.90;;;;;;5001140;28;20214;-78
2023/03/26 07:03:33;;;;;;;6.43;2.17;;;7.00;99.90;;;;;;5012470;28;20210;-77
2023/03/26 07:06:01;;;;;;;5.37;1.70;;;7.10;99.90;;;;;;5012467;28;20221;-76
2023/03/26 07:08:30;;;;;;;7.60;2.47;;;7.10;99.90;;;;;;5013383;28;20233;-77
2023/03/26 07:10:59;;;;;;;6.47;2.30;;;7.30;99.90;;;;;;4994675;28;20222;-78
2023/03/26 07:13:27;;;;;;;7.80;2.30;;;7.30;99.90;;;;;;4993142;28;20211;-76
2023/03/26 07:15:56;;;;;;;6.70;2.50;;;7.30;99.90;;;;;;4993692;28;20234;-76
2023/03/26 07:18:24;;;;;;;6.17;2.20;;;7.40;99.90;;;;;;4993751;28;20206;-76
2023/03/26 07:20:54;;;;;;;7.27;2.43;;;7.50;99.90;;;;;;4993654;28;20261;-75
2023/03/26 07:23:23;;;;;;;6.20;2.13;;;7.50;99.90;;;;;;4992974;28;20206;-77
2023/03/26 07:25:51;;;;;;;8.63;2.40;;;7.70;99.90;;;;;;5003037;28;20209;-76
2023/03/26 07:28:27;;;;;;;7.10;2.20;;;7.80;99.90;;;;;;5013260;28;20591;-76
2023/03/26 07:31:10;;;;;;;5.40;2.00;;;7.80;99.90;;;;;;5012925;28;20189;-77
2023/03/26 07:33:45;;;;;;;6.77;1.80;;;7.80;99.90;;;;;;5012675;28;20224;-78
2023/03/26 07:36:25;;;;;;;5.93;1.97;;;7.90;99.90;;;;;;5012190;28;20659;-76
2023/03/26 07:39:09;;;;;;;7.30;2.20;;;7.90;99.90;;;;;;5012874;28;20674;-75
2023/03/26 07:41:45;;;;;;;5.37;2.07;;;7.90;99.90;;;;;;5012780;28;20313;-77
2023/03/26 07:44:39;;;;;;;7.83;1.93;;;7.90;99.90;;;;;;4994954;28;20205;-77
2023/03/26 07:47:21;;;;;;;7.97;2.13;;;8.00;99.90;;;;;;4989672;28;20696;-77
2023/03/26 07:49:50;;;;;;;6.20;1.90;;;8.00;99.90;;;;;;4993578;28;20214;-76
2023/03/26 07:52:19;;;;;;;6.03;2.17;;;8.10;99.90;;;;;;5003230;28;20581;-76
2023/03/26 07:54:47;;;;;;;7.87;2.23;;;8.10;99.90;;;;;;5012827;28;20317;-78
2023/03/26 07:57:25;;;;;;;3.93;1.80;;;8.10;99.90;;;;;;5012982;28;20210;-75
2023/03/26 08:00:05;;;;;;;6.57;1.80;;;8.20;99.90;;;;;;5010889;28;20213;-75
2023/03/26 08:02:55;;;;;;;8.73;2.20;;;8.20;99.90;;;;;;4993774;28;20277;-77
2023/03/26 08:05:27;;;;;;;7.80;2.30;;;8.20;99.90;;;;;;4993445;28;20241;-78
2023/03/26 08:08:15;;;;;;;4.87;1.60;;;8.20;99.90;;;;;;4993505;28;20249;-78
2023/03/26 08:11:00;;;;;;;4.40;1.63;;;8.20;99.90;;;;;;5006886;28;20786;-76
2023/03/26 08:13:39;;;;;;;6.27;1.97;;;8.20;99.90;;;;;;5013138;28;20225;-76
2023/03/26 08:16:16;;;;;;;5.50;2.00;;;8.10;99.90;;;;;;5013671;28;20264;-76
2023/03/26 08:18:53;;;;;;;3.83;1.80;;;8.00;99.90;;;;;;5012831;28;20247;-77
2023/03/26 08:21:25;;;;;;;6.47;2.10;;;8.10;99.90;;;;;;4993653;28;20280;-78
2023/03/26 08:24:05;;;;;;;5.70;2.00;;;8.10;99.90;;;;;;4993861;28;20190;-75
2023/03/26 08:26:40;;;;;;;8.07;1.90;;;8.10;99.90;;;;;;4994910;28;20233;-76
2023/03/26 08:29:18;;;;;;;5.87;2.30;;;8.20;99.90;;;;;;4995521;28;20221;-77
2023/03/26 08:31:49;;;;;;;7.80;2.20;;;8.20;99.90;;;;;;4993914;28;20298;-78
2023/03/26 08:34:17;;;;;;;4.80;1.77;;;8.20;99.90;;;;;;4993094;28;20205;-78
2023/03/26 08:36:46;;;;;;;5.67;1.83;;;8.20;99.90;;;;;;4993460;28;20222;-78
2023/03/26 08:39:14;;;;;;;9.00;2.30;;;8.20;99.90;;;;;;4992739;28;20210;-78
2023/03/26 08:42:19;;;;;;;4.30;1.80;;;8.20;99.90;;;;;;4992826;28;20206;-79
2023/03/26 08:45:35;;;;;;;5.40;2.17;;;8.20;99.90;;;;;;4992888;28;20207;-79
2023/03/26 08:48:34;;;;;;;9.57;2.13;;;8.20;99.90;;;;;;4993020;28;20226;-77
2023/03/26 08:51:35;;;;;;;8.27;2.03;;;8.20;99.90;;;;;;4996112;28;20202;-78
2023/03/26 08:54:30;;;;;;;5.47;1.90;;;8.30;99.90;;;;;;4996552;28;20676;-78
2023/03/26 08:57:24;;;;;;;5.90;1.97;;;8.30;99.90;;;;;;4996148;28;20262;-75
2023/03/26 09:00:41;;;;;;;10.77;5.23;;;8.40;99.90;;;;;;4996490;28;20209;-76
2023/03/26 09:03:40;;;;;;;8.43;4.33;;;8.40;99.90;;;;;;4996155;28;20194;-78
2023/03/26 09:06:27;;;;;;;6.40;2.23;;;8.50;99.90;;;;;;4998405;28;20254;-76
2023/03/26 09:10:14;;;;;;;7.13;2.20;;;8.60;99.90;;;;;;5008951;28;20228;-78
2023/03/26 09:13:10;;;;;;;8.77;5.13;;;8.70;99.90;;;;;;5009819;28;20217;-76
2023/03/26 09:16:06;;;;;;;8.50;2.90;;;8.80;99.90;;;;;;4973493;28;20263;-77
2023/03/26 09:19:03;;;;;;;14.27;7.67;;;8.90;99.90;;;;;;4998368;28;20250;-79
2023/03/26 09:21:51;;;;;;;9.33;3.13;;;8.90;99.90;;;;;;4996641;28;20205;-77
2023/03/26 09:24:52;;;;;;;7.40;2.83;;;8.90;99.90;;;;;;4996763;28;20230;-77
2023/03/26 09:27:39;;;;;;;6.80;2.40;;;9.00;99.90;;;;;;4964772;28;20214;-76
2023/03/26 09:30:36;;;;;;;9.43;2.13;;;9.00;99.90;;;;;;4996272;28;20222;-76
2023/03/26 09:33:43;;;;;;;7.20;2.00;;;8.80;99.90;;;;;;4995348;28;20240;-78
2023/03/26 09:36:41;;;;;;;5.63;2.10;;;8.80;99.90;;;;;;5013126;28;20213;-78
2023/03/26 09:39:17;;;;;;;6.77;2.00;;;8.60;99.90;;;;;;5014969;28;20676;-77
2023/03/26 09:41:57;;;;;;;5.50;2.10;;;8.50;99.90;;;;;;4995773;28;20204;-77
2023/03/26 09:45:01;;;;;;;7.70;1.90;;;8.50;99.90;;;;;;4995724;28;20615;-79
2023/03/26 09:48:04;;;;;;;8.37;2.50;;;8.40;99.90;;;;;;4966681;28;20646;-80
2023/03/26 09:50:51;;;;;;;8.60;2.53;;;8.40;99.90;;;;;;4995740;28;20304;-79
2023/03/26 09:53:43;;;;;;;5.23;1.97;;;8.40;99.90;;;;;;4996168;28;20194;-78
2023/03/26 09:56:25;;;;;;;7.00;2.00;;;8.50;99.90;;;;;;4995923;28;20214;-78
2023/03/26 09:59:21;;;;;;;6.97;2.50;;;8.50;99.90;;;;;;4996918;28;20249;-79
2023/03/26 10:01:57;;;;;;;8.53;3.00;;;8.40;99.90;;;;;;4994114;28;20241;-78
2023/03/26 10:05:00;;;;;;;9.03;2.17;;;8.30;99.90;;;;;;4996267;28;20623;-78
2023/03/26 10:07:54;;;;;;;7.30;2.17;;;8.20;99.90;;;;;;5003373;28;20210;-78
2023/03/26 10:10:31;;;;;;;6.13;2.60;;;8.20;99.90;;;;;;5015626;28;20602;-79
2023/03/26 10:13:06;;;;;;;9.17;2.37;;;8.20;99.90;;;;;;5015225;28;20655;-80
2023/03/26 10:15:57;;;;;;;7.53;2.63;;;8.20;99.90;;;;;;5003094;28;20257;-77
2023/03/26 10:18:37;;;;;;;7.70;2.40;;;8.40;99.90;;;;;;4995718;28;20690;-78
2023/03/26 10:21:10;;;;;;;7.30;2.63;;;8.50;99.90;;;;;;4996005;28;20313;-78
2023/03/26 10:24:01;;;;;;;7.83;2.27;;;8.50;99.90;;;;;;5008954;28;20296;-78
2023/03/26 10:26:58;;;;;;;6.40;2.93;;;8.30;99.90;;;;;;5015436;28;20293;-77
2023/03/26 10:30:07;;;;;;;7.67;2.07;;;8.40;99.90;;;;;;5016416;28;20232;-78
2023/03/26 10:32:44;;;;;;;5.00;2.00;;;8.40;99.90;;;;;;4997390;28;20206;-77
2023/03/26 10:35:24;;;;;;;5.83;2.00;;;8.50;99.90;;;;;;4998636;28;20233;-78
2023/03/26 10:38:08;;;;;;;8.07;2.30;;;8.50;99.90;;;;;;4996835;28;20198;-78
2023/03/26 10:40:45;;;;;;;5.87;2.33;;;8.50;99.90;;;;;;5012840;28;20221;-77
2023/03/26 10:43:42;;;;;;;8.50;2.50;;;8.50;99.90;;;;;;5016315;28;20284;-78
2023/03/26 10:46:45;;;;;;;7.03;2.17;;;8.50;99.90;;;;;;5014120;28;20225;-77
2023/03/26 10:49:47;;;;;;;7.20;2.27;;;8.40;99.90;;;;;;5008893;28;20235;-76
2023/03/26 10:52:19;;;;;;;5.53;2.10;;;8.40;99.90;;;;;;5007727;28;20663;-77
2023/03/26 10:54:55;;;;;;;7.00;2.20;;;8.40;99.90;;;;;;5019115;28;20240;-77
2023/03/26 10:57:35;;;;;;;7.10;2.20;;;8.50;99.90;;;;;;5016544;28;20289;-77
2023/03/26 11:00:15;;;;;;;6.17;1.93;;;8.60;99.90;;;;;;5016685;28;20197;-78
2023/03/26 11:02:54;;;;;;;6.27;2.20;;;8.70;99.90;;;;;;5009979;28;20210;-79
2023/03/26 11:05:44;;;;;;;5.30;2.10;;;8.70;99.90;;;;;;5013682;28;20205;-77
2023/03/26 11:08:19;;;;;;;7.87;2.50;;;8.70;99.90;;;;;;4998906;28;20190;-77
2023/03/26 11:11:05;;;;;;;5.93;2.53;;;8.70;99.90;;;;;;5009975;28;20625;-77
2023/03/26 11:13:45;;;;;;;7.57;2.73;;;8.70;99.90;;;;;;5015746;28;20675;-78
2023/03/26 11:16:21;;;;;;;5.87;2.40;;;8.60;99.90;;;;;;5015024;28;20324;-77
2023/03/26 11:18:56;;;;;;;5.63;2.17;;;8.60;99.90;;;;;;5014227;28;20284;-78
2023/03/26 11:21:30;;;;;;;3.87;1.63;;;8.50;99.90;;;;;;5015073;28;20243;-77
2023/03/26 11:24:20;;;;;;;6.67;2.23;;;8.50;99.90;;;;;;5018113;28;20220;-77
2023/03/26 11:26:54;;;;;;;5.30;2.13;;;8.40;99.90;;;;;;5018956;28;20282;-75
2023/03/26 11:29:35;;;;;;;6.23;2.23;;;8.40;99.90;;;;;;5020007;28;20217;-76
2023/03/26 11:32:10;;;;;;;6.03;2.30;;;8.60;99.90;;;;;;5012327;28;20210;-77
2023/03/26 11:34:42;;;;;;;4.43;1.90;;;8.70;99.90;;;;;;5000360;28;20210;-78
2023/03/26 11:37:18;;;;;;;4.83;1.90;;;8.70;99.90;;;;;;4999454;28;20195;-75
2023/03/26 11:39:51;;;;;;;8.83;3.83;;;8.60;99.90;;;;;;4999250;28;20621;-76
2023/03/26 11:42:24;;;;;;;4.60;2.10;;;8.60;99.90;;;;;;4996384;28;20523;-76
2023/03/26 11:44:57;;;;;;;4.10;1.90;;;8.50;99.90;;;;;;4999319;28;20211;-77
2023/03/26 11:47:32;;;;;;;3.20;2.00;;;8.50;99.90;;;;;;5006337;28;20212;-76
2023/03/26 11:50:03;;;;;;;3.73;1.50;;;8.70;99.90;;;;;;5011746;28;20229;-77
2023/03/26 11:52:31;;;;;;;3.63;1.60;;;8.80;99.90;;;;;;5011589;28;20206;-77
2023/03/26 11:54:59;;;;;;;2.93;1.43;;;9.00;99.90;;;;;;5016293;28;20216;-79
2023/03/26 11:57:31;;;;;;;3.03;1.40;;;9.00;99.90;;;;;;5010627;28;20209;-78
2023/03/26 12:00:10;;;;;;;4.73;1.50;;;8.90;99.90;;;;;;5010029;28;20206;-77
2023/03/26 12:02:41;;;;;;;2.93;1.77;;;8.80;99.90;;;;;;5014847;28;20241;-78
2023/03/26 12:05:16;;;;;;;3.33;1.43;;;8.90;99.90;;;;;;5016486;28;20237;-78
2023/03/26 12:07:52;;;;;;;2.80;1.60;;;8.80;99.90;;;;;;5008002;28;20288;-77
2023/03/26 12:10:24;;;;;;;2.70;1.30;;;8.70;99.90;;;;;;4999875;28;20288;-77
2023/03/26 12:12:54;;;;;;;2.00;1.53;;;8.70;99.90;;;;;;5015285;28;20635;-78
2023/03/26 12:15:24;;;;;;;2.73;1.43;;;8.90;99.90;;;;;;5014665;28;20730;-76
2023/03/26 12:17:55;;;;;;;1.63;1.40;;;9.10;99.90;;;;;;5006866;28;20692;-77
2023/03/26 12:20:37;;;;;;;3.53;1.50;;;9.20;99.90;;;;;;5015075;28;20232;-76
2023/03/26 12:23:07;;;;;;;2.93;1.50;;;9.40;99.90;;;;;;5013592;28;20567;-78
2023/03/26 12:25:37;;;;;;;2.10;1.40;;;9.40;99.90;;;;;;5002345;28;20214;-77
2023/03/26 12:28:17;;;;;;;1.70;1.20;;;9.50;99.90;;;;;;5016326;28;20737;-77
2023/03/26 12:30:53;;;;;;;3.70;1.30;;;9.70;99.90;;;;;;5015160;28;20244;-77
2023/03/26 12:33:27;;;;;;;1.60;0.90;;;10.30;99.90;;;;;;5009454;28;20221;-77
2023/03/26 12:35:59;;;;;;;1.00;1.00;;;10.50;99.90;;;;;;5013682;28;20304;-77
2023/03/26 12:38:31;;;;;;;1.13;0.87;;;10.60;99.90;;;;;;5007227;28;20221;-77
2023/03/26 12:41:11;;;;;;;1.13;0.83;;;10.80;99.90;;;;;;5015600;28;20237;-78
2023/03/26 12:44:21;;;;;;;0.70;0.70;;;11.00;99.90;;;;;;5014555;28;20216;-76
2023/03/26 12:47:19;;;;;;;0.70;0.70;;;10.90;99.90;;;;;;5000623;28;20288;-76
2023/03/26 12:50:13;;;;;;;1.60;1.17;;;11.00;99.90;;;;;;5013779;28;20217;-76
2023/03/26 12:53:01;;;;;;;1.63;1.40;;;10.90;99.90;;;;;;5009622;28;20209;-77
2023/03/26 12:55:41;;;;;;;2.27;1.30;;;10.90;99.90;;;;;;5013226;28;20241;-77
2023/03/26 12:58:39;;;;;;;1.90;1.10;;;10.80;99.90;;;;;;5014683;28;20205;-78
2023/03/26 13:01:15;;;;;;;1.97;1.67;;;10.90;99.90;;;;;;5013003;28;20205;-76
2023/03/26 13:04:05;;;;;;;1.53;1.43;;;10.90;99.90;;;;;;5014866;28;20211;-77
2023/03/26 13:06:43;;;;;;;1.67;0.97;;;10.80;99.90;;;;;;5014285;28;20560;-76
2023/03/26 13:09:50;;;;;;;1.93;1.30;;;10.80;99.90;;;;;;5014633;28;20449;-78
2023/03/26 13:12:33;;;;;;;2.60;1.10;;;10.60;99.90;;;;;;5016436;28;20209;-77
2023/03/26 13:15:22;;;;;;;4.27;3.40;;;10.60;99.90;;;;;;5015865;28;20249;-76
2023/03/26 13:18:06;;;;;;;1.70;1.20;;;10.50;99.90;;;;;;5016065;28;20284;-77
2023/03/26 13:20:49;;;;;;;2.83;1.23;;;10.30;99.90;;;;;;5012705;28;20202;-77
2023/03/26 13:23:37;;;;;;;3.70;1.70;;;10.30;99.90;;;;;;5026924;28;20214;-77
2023/03/26 13:26:15;;;;;;;1.93;1.20;;;10.20;99.90;;;;;;5008883;28;20264;-78
2023/03/26 13:28:54;;;;;;;3.23;1.60;;;10.20;99.90;;;;;;5019751;28;20209;-78
2023/03/26 13:31:28;;;;;;;2.03;1.33;;;10.20;99.90;;;;;;5019231;28;20320;-77
2023/03/26 13:34:02;;;;;;;5.13;1.70;;;10.00;99.90;;;;;;5020155;28;20217;-77
2023/03/26 13:36:43;;;;;;;2.43;1.00;;;9.50;99.90;;;;;;5024563;28;20224;-76
2023/03/26 13:39:23;;;;;;;4.97;1.63;;;8.30;99.90;;;;;;5026670;28;20210;-78
2023/03/26 13:42:09;;;;;;;1.43;1.20;;;7.80;99.90;;;;;;5025493;28;20681;-76